createdAt,value
2022-08-11T00:22:52.804Z,24.96
2022-08-11T00:25:22.131Z,24.99
2022-08-11T00:28:23.751Z,25.03
2022-08-11T00:30:57.755Z,25.00
2022-08-11T00:37:21.761Z,25.05
2022-08-11T00:39:53.218Z,25.02
2022-08-11T00:43:10.588Z,24.98
2022-08-11T00:45:56.546Z,24.82
2022-08-11T00:48:36.580Z,24.78
2022-08-11T00:51:20.622Z,24.73
2022-08-11T00:54:06.679Z,24.72
2022-08-11T00:57:09.218Z,24.78
2022-08-11T01:01:09.778Z,24.84
2022-08-11T01:03:43.071Z,24.83
2022-08-11T01:10:44.807Z,24.76
2022-08-11T01:13:33.380Z,24.84
2022-08-11T01:16:57.923Z,24.86
2022-08-11T01:20:45.645Z,24.90
2022-08-11T01:22:55.866Z,24.71
2022-08-11T01:25:56.721Z,24.69
2022-08-11T01:32:15.868Z,24.36
2022-08-11T01:35:30.513Z,24.65
2022-08-11T01:38:35.399Z,24.63
2022-08-11T07:59:09.794Z,33.63
2022-08-11T08:01:57.030Z,31.86
2022-08-11T08:04:47.242Z,31.26
2022-08-11T08:07:40.106Z,30.74
2022-08-11T08:10:28.507Z,31.92
2022-08-11T08:13:16.664Z,31.31
2022-08-11T08:16:03.764Z,31.52
2022-08-11T08:18:36.166Z,33.64
2022-08-11T08:21:15.744Z,32.85
2022-08-11T08:23:46.598Z,34.39
2022-08-11T08:26:34.756Z,31.80
2022-08-11T08:33:11.742Z,32.18
2022-08-11T08:35:54.749Z,31.72
2022-08-11T08:41:40.735Z,33.69
2022-08-11T08:47:02.963Z,34.08
2022-08-11T08:49:40.276Z,34.54
2022-08-11T08:52:30.588Z,35.32
2022-08-11T08:55:20.235Z,35.93
2022-08-11T08:57:50.444Z,34.11
2022-08-11T09:00:23.059Z,35.00
2022-08-11T09:02:52.027Z,37.01
2022-08-11T09:05:37.975Z,37.11
2022-08-11T09:08:52.415Z,37.10
2022-08-11T09:30:55.589Z,33.48
2022-08-11T09:39:22.152Z,33.47
2022-08-11T09:42:44.509Z,35.23
2022-08-11T09:50:02.519Z,35.51
2022-08-11T09:53:36.043Z,36.90
2022-08-11T10:28:36.455Z,31.35
2022-08-11T10:36:18.436Z,34.02
2022-08-11T10:44:55.788Z,33.18
2022-08-11T10:48:28.507Z,32.96
2022-08-11T10:52:04.455Z,32.80
2022-08-11T11:19:21.705Z,31.14
2022-08-11T11:35:16.322Z,32.64
2022-08-11T11:38:33.369Z,32.02
2022-08-11T11:42:12.097Z,32.05
2022-08-11T11:44:56.187Z,31.48
2022-08-11T11:47:33.551Z,31.62
2022-08-11T14:07:40.110Z,31.42
2022-08-11T14:12:23.262Z,31.23
2022-08-11T14:15:32.482Z,31.26
2022-08-11T14:18:47.063Z,31.10
2022-08-11T14:22:10.066Z,31.43
2022-08-11T14:24:53.717Z,31.48
2022-08-11T14:28:32.155Z,31.23
2022-08-11T14:59:27.088Z,31.57
2022-08-11T15:02:15.904Z,31.55
2022-08-11T15:04:58.048Z,31.49
2022-08-11T15:08:00.284Z,31.21
2022-08-11T15:10:35.697Z,31.27
2022-08-11T15:13:04.193Z,31.28
2022-08-11T15:15:57.076Z,31.03
2022-08-11T15:19:27.353Z,31.04
2022-08-11T15:27:46.396Z,31.40
2022-08-11T15:30:10.385Z,31.43
2022-08-11T15:38:45.502Z,31.11
2022-08-11T15:43:15.492Z,31.15
2022-08-11T16:02:45.375Z,30.97
2022-08-11T16:10:16.394Z,30.80
2022-08-11T16:13:24.483Z,30.83
2022-08-11T16:43:10.695Z,30.47
2022-08-11T16:46:26.327Z,30.31
2022-08-11T16:49:52.838Z,30.39
2022-08-11T16:53:17.450Z,30.34
2022-08-11T16:57:18.591Z,30.16
2022-08-11T17:00:35.729Z,30.07
2022-08-11T17:04:31.228Z,30.01
2022-08-11T17:08:56.955Z,29.92
2022-08-11T17:11:54.610Z,29.72
2022-08-11T17:15:02.554Z,29.51
2022-08-11T17:17:38.067Z,29.84
2022-08-11T17:20:39.630Z,29.51
2022-08-11T17:23:24.205Z,29.17
2022-08-11T17:26:03.981Z,29.02
2022-08-11T17:28:35.066Z,28.96
2022-08-11T17:31:23.356Z,28.78
2022-08-11T17:34:11.120Z,28.74
2022-08-11T17:36:45.088Z,28.60
2022-08-11T17:39:15.526Z,28.60
2022-08-11T17:42:05.369Z,28.49
2022-08-11T17:44:52.690Z,28.33
2022-08-11T17:47:39.632Z,28.29
2022-08-11T17:50:09.274Z,28.29
2022-08-11T17:53:05.300Z,28.15
2022-08-11T17:55:53.898Z,27.96
2022-08-11T17:58:41.732Z,28.05
2022-08-11T18:01:11.802Z,28.08
2022-08-11T18:03:41.555Z,28.06
2022-08-11T18:06:14.186Z,28.04
2022-08-11T18:09:04.818Z,27.84
2022-08-11T18:12:09.959Z,27.82
2022-08-11T18:15:02.638Z,27.73
2022-08-11T18:17:49.642Z,27.67
2022-08-11T18:20:39.543Z,27.53
2022-08-11T18:23:41.861Z,27.39
2022-08-11T18:26:38.088Z,27.20
2022-08-11T18:29:26.844Z,27.26
2022-08-11T18:32:21.138Z,27.36
2022-08-11T18:35:12.488Z,27.13
2022-08-11T18:38:05.748Z,27.08
2022-08-11T18:40:54.284Z,26.98
2022-08-11T18:43:43.174Z,26.93
2022-08-11T18:46:33.935Z,26.83
2022-08-11T18:49:35.480Z,26.67
2022-08-11T18:52:36.544Z,26.69
2022-08-11T18:55:28.320Z,26.65
2022-08-11T18:58:16.675Z,26.49
2022-08-11T19:01:05.038Z,26.41
2022-08-11T19:03:54.393Z,26.43
2022-08-11T19:06:42.511Z,26.24
2022-08-11T19:09:31.644Z,26.28
2022-08-11T19:12:20.363Z,26.13
2022-08-11T19:15:09.210Z,26.07
2022-08-11T19:17:59.103Z,26.07
2022-08-11T19:20:48.478Z,26.42
2022-08-11T19:23:39.702Z,26.33
2022-08-11T19:26:26.982Z,26.07
2022-08-11T19:30:07.889Z,26.02
2022-08-11T19:32:21.787Z,26.00
2022-08-11T19:35:09.208Z,25.94
2022-08-11T19:37:58.007Z,25.88
2022-08-11T19:40:45.029Z,25.84
2022-08-11T19:43:32.292Z,25.91
2022-08-11T19:46:20.532Z,26.17
2022-08-11T19:49:12.393Z,26.23
2022-08-11T19:51:59.143Z,26.07
2022-08-11T19:54:48.763Z,26.10
2022-08-11T19:57:39.870Z,25.90
2022-08-11T20:00:37.386Z,25.99
2022-08-11T20:03:27.130Z,26.14
2022-08-11T20:06:19.286Z,26.06
2022-08-11T20:09:10.479Z,25.73
2022-08-11T20:12:02.182Z,25.96
2022-08-11T20:14:52.847Z,25.71
2022-08-11T20:17:44.050Z,25.58
2022-08-11T20:20:33.319Z,25.69
2022-08-11T20:23:23.257Z,25.77
2022-08-11T20:29:18.770Z,25.84
2022-08-11T20:32:09.736Z,25.88
2022-08-11T20:34:58.912Z,25.57
2022-08-11T20:37:50.845Z,25.58
2022-08-11T20:40:41.093Z,25.49
2022-08-11T20:44:07.706Z,25.48
2022-08-11T20:46:38.461Z,25.60
2022-08-11T20:49:44.907Z,25.79
2022-08-11T20:52:37.662Z,25.60
2022-08-11T20:55:51.775Z,25.50
2022-08-11T20:59:10.994Z,25.50
2022-08-11T21:01:44.162Z,25.32
2022-08-11T21:04:30.520Z,25.49
2022-08-11T21:07:28.239Z,25.45
2022-08-11T21:10:23.795Z,25.40
2022-08-11T21:13:24.253Z,25.30
2022-08-11T21:16:26.486Z,25.19
2022-08-11T21:19:19.213Z,25.04
2022-08-11T21:22:28.121Z,25.28
2022-08-11T21:25:17.248Z,25.42
2022-08-11T21:28:05.528Z,25.52
2022-08-11T21:30:57.702Z,25.60
2022-08-11T21:33:46.770Z,25.65
2022-08-11T21:36:33.588Z,25.72
2022-08-11T21:39:25.095Z,25.68
2022-08-11T21:42:16.228Z,25.86
2022-08-11T21:45:07.480Z,25.72
2022-08-11T21:48:00.798Z,25.67
2022-08-11T21:50:48.240Z,25.66
2022-08-11T21:53:34.858Z,25.64
2022-08-11T21:56:25.549Z,25.53
2022-08-11T21:59:15.882Z,25.21
2022-08-11T22:02:03.722Z,24.20
2022-08-11T22:04:50.697Z,23.86
2022-08-11T22:07:41.114Z,23.09
2022-08-11T22:10:42.187Z,22.17
2022-08-11T22:13:31.698Z,21.50
2022-08-11T22:16:19.331Z,21.57
2022-08-11T22:19:08.838Z,21.52
2022-08-11T22:22:02.570Z,21.07
2022-08-11T22:24:51.965Z,20.31
2022-08-11T22:27:39.752Z,19.91
2022-08-11T22:30:27.607Z,20.16
2022-08-11T22:33:16.424Z,20.13
2022-08-11T22:36:05.763Z,20.34
2022-08-11T22:38:53.793Z,20.75
2022-08-11T22:41:41.574Z,20.99
2022-08-11T22:44:28.543Z,21.08
2022-08-11T22:47:21.525Z,21.27
2022-08-11T22:50:14.630Z,21.33
2022-08-11T22:53:02.624Z,21.23
2022-08-11T22:55:49.844Z,20.84
2022-08-11T22:58:39.558Z,20.95
2022-08-11T23:01:25.916Z,21.04
2022-08-11T23:04:12.842Z,21.06
2022-08-11T23:07:01.424Z,21.06
2022-08-11T23:09:48.366Z,21.35
2022-08-11T23:12:34.714Z,21.36
2022-08-11T23:15:21.512Z,21.22
2022-08-11T23:18:07.823Z,21.15
2022-08-11T23:20:55.785Z,20.98
2022-08-11T23:23:46.974Z,20.96
2022-08-11T23:26:36.922Z,20.80
2022-08-11T23:29:25.237Z,21.00
2022-08-11T23:32:12.616Z,21.24
2022-08-11T23:35:40.451Z,20.57
2022-08-11T23:38:09.431Z,20.90
2022-08-11T23:40:57.376Z,20.93
2022-08-11T23:43:43.651Z,20.94
2022-08-11T23:46:29.979Z,20.93
2022-08-11T23:49:20.953Z,21.19
2022-08-11T23:52:08.563Z,20.88
2022-08-11T23:54:54.864Z,21.08
2022-08-11T23:57:47.806Z,21.36
